sensor_id;sensor_type;location;lat;lon;timestamp;P1;durP1;ratioP1;P2;durP2;ratioP2
11675;SDS011;5894;42.768;23.404;2022-09-09T00:00:18;7.68;;;6.95;;
11675;SDS011;5894;42.768;23.404;2022-09-09T00:02:48;7.30;;;6.70;;
11675;SDS011;5894;42.768;23.404;2022-09-09T00:05:23;8.93;;;6.85;;
11675;SDS011;5894;42.768;23.404;2022-09-09T00:07:57;7.68;;;6.88;;
11675;SDS011;5894;42.768;23.404;2022-09-09T00:10:31;7.65;;;6.95;;
11675;SDS011;5894;42.768;23.404;2022-09-09T00:13:05;7.72;;;6.82;;
11675;SDS011;5894;42.768;23.404;2022-09-09T00:15:44;9.73;;;7.00;;
11675;SDS011;5894;42.768;23.404;2022-09-09T00:18:23;9.35;;;7.05;;
11675;SDS011;5894;42.768;23.404;2022-09-09T00:20:55;7.85;;;6.90;;
11675;SDS011;5894;42.768;23.404;2022-09-09T00:23:28;7.20;;;6.60;;
11675;SDS011;5894;42.768;23.404;2022-09-09T00:26:01;6.97;;;6.35;;
11675;SDS011;5894;42.768;23.404;2022-09-09T00:28:32;7.28;;;6.57;;
11675;SDS011;5894;42.768;23.404;2022-09-09T00:31:09;7.63;;;6.65;;
11675;SDS011;5894;42.768;23.404;2022-09-09T00:33:39;8.63;;;7.38;;
11675;SDS011;5894;42.768;23.404;2022-09-09T00:36:09;9.80;;;6.80;;
11675;SDS011;5894;42.768;23.404;2022-09-09T00:38:42;8.02;;;6.40;;
11675;SDS011;5894;42.768;23.404;2022-09-09T00:41:14;7.07;;;6.32;;
11675;SDS011;5894;42.768;23.404;2022-09-09T00:43:50;7.90;;;7.20;;
11675;SDS011;5894;42.768;23.404;2022-09-09T00:46:32;7.90;;;7.10;;
11675;SDS011;5894;42.768;23.404;2022-09-09T00:49:15;7.90;;;7.00;;
11675;SDS011;5894;42.768;23.404;2022-09-09T00:51:50;8.00;;;7.30;;
11675;SDS011;5894;42.768;23.404;2022-09-09T00:54:28;7.65;;;6.95;;
11675;SDS011;5894;42.768;23.404;2022-09-09T00:57:17;7.50;;;6.82;;
11675;SDS011;5894;42.768;23.404;2022-09-09T00:59:56;10.77;;;6.90;;
11675;SDS011;5894;42.768;23.404;2022-09-09T01:02:29;9.15;;;7.13;;
11675;SDS011;5894;42.768;23.404;2022-09-09T01:05:05;7.53;;;6.82;;
11675;SDS011;5894;42.768;23.404;2022-09-09T01:07:38;7.38;;;6.63;;
11675;SDS011;5894;42.768;23.404;2022-09-09T01:10:14;7.70;;;6.85;;
11675;SDS011;5894;42.768;23.404;2022-09-09T01:12:49;7.72;;;7.03;;
11675;SDS011;5894;42.768;23.404;2022-09-09T01:15:20;8.05;;;6.80;;
11675;SDS011;5894;42.768;23.404;2022-09-09T01:17:53;7.25;;;6.65;;
11675;SDS011;5894;42.768;23.404;2022-09-09T01:20:29;7.65;;;6.88;;
11675;SDS011;5894;42.768;23.404;2022-09-09T01:23:08;8.10;;;6.88;;
11675;SDS011;5894;42.768;23.404;2022-09-09T01:26:17;7.63;;;6.93;;
11675;SDS011;5894;42.768;23.404;2022-09-09T01:28:49;7.45;;;6.80;;
11675;SDS011;5894;42.768;23.404;2022-09-09T01:31:21;7.10;;;6.50;;
11675;SDS011;5894;42.768;23.404;2022-09-09T01:33:53;8.20;;;6.57;;
11675;SDS011;5894;42.768;23.404;2022-09-09T01:36:26;9.70;;;7.35;;
11675;SDS011;5894;42.768;23.404;2022-09-09T01:39:00;7.60;;;6.90;;
11675;SDS011;5894;42.768;23.404;2022-09-09T01:41:28;8.38;;;7.22;;
11675;SDS011;5894;42.768;23.404;2022-09-09T01:44:02;7.55;;;6.93;;
11675;SDS011;5894;42.768;23.404;2022-09-09T01:46:32;7.43;;;6.82;;
11675;SDS011;5894;42.768;23.404;2022-09-09T01:49:00;9.18;;;6.72;;
11675;SDS011;5894;42.768;23.404;2022-09-09T01:51:30;7.53;;;6.93;;
11675;SDS011;5894;42.768;23.404;2022-09-09T01:54:01;8.05;;;7.07;;
11675;SDS011;5894;42.768;23.404;2022-09-09T01:56:34;7.72;;;6.65;;
11675;SDS011;5894;42.768;23.404;2022-09-09T01:59:11;7.38;;;6.78;;
11675;SDS011;5894;42.768;23.404;2022-09-09T02:01:54;8.13;;;6.43;;
11675;SDS011;5894;42.768;23.404;2022-09-09T02:04:34;7.57;;;6.88;;
11675;SDS011;5894;42.768;23.404;2022-09-09T02:07:13;8.13;;;6.90;;
11675;SDS011;5894;42.768;23.404;2022-09-09T02:09:51;7.20;;;6.50;;
11675;SDS011;5894;42.768;23.404;2022-09-09T02:12:25;7.47;;;6.78;;
11675;SDS011;5894;42.768;23.404;2022-09-09T02:14:57;8.07;;;7.20;;
11675;SDS011;5894;42.768;23.404;2022-09-09T02:17:37;8.63;;;6.82;;
11675;SDS011;5894;42.768;23.404;2022-09-09T02:20:12;7.50;;;6.80;;
11675;SDS011;5894;42.768;23.404;2022-09-09T02:22:51;8.30;;;7.50;;
11675;SDS011;5894;42.768;23.404;2022-09-09T02:25:22;8.75;;;7.60;;
11675;SDS011;5894;42.768;23.404;2022-09-09T02:27:58;9.18;;;7.15;;
11675;SDS011;5894;42.768;23.404;2022-09-09T02:30:25;8.02;;;7.15;;
11675;SDS011;5894;42.768;23.404;2022-09-09T02:32:58;8.50;;;7.60;;
11675;SDS011;5894;42.768;23.404;2022-09-09T02:35:40;8.45;;;7.35;;
11675;SDS011;5894;42.768;23.404;2022-09-09T02:38:11;7.95;;;7.15;;
11675;SDS011;5894;42.768;23.404;2022-09-09T02:40:44;10.50;;;7.13;;
11675;SDS011;5894;42.768;23.404;2022-09-09T02:43:15;9.48;;;7.40;;
11675;SDS011;5894;42.768;23.404;2022-09-09T02:45:45;8.25;;;6.68;;
11675;SDS011;5894;42.768;23.404;2022-09-09T02:48:20;8.13;;;7.32;;
11675;SDS011;5894;42.768;23.404;2022-09-09T02:50:54;7.60;;;6.82;;
11675;SDS011;5894;42.768;23.404;2022-09-09T02:53:32;7.80;;;7.10;;
11675;SDS011;5894;42.768;23.404;2022-09-09T02:56:08;7.28;;;6.55;;
11675;SDS011;5894;42.768;23.404;2022-09-09T02:58:43;7.95;;;7.00;;
11675;SDS011;5894;42.768;23.404;2022-09-09T03:01:11;7.70;;;6.95;;
11675;SDS011;5894;42.768;23.404;2022-09-09T03:03:39;8.15;;;7.35;;
11675;SDS011;5894;42.768;23.404;2022-09-09T03:06:10;7.38;;;6.55;;
11675;SDS011;5894;42.768;23.404;2022-09-09T03:08:38;7.57;;;6.88;;
11675;SDS011;5894;42.768;23.404;2022-09-09T03:11:05;8.23;;;7.38;;
11675;SDS011;5894;42.768;23.404;2022-09-09T03:13:36;7.55;;;6.90;;
11675;SDS011;5894;42.768;23.404;2022-09-09T03:16:05;7.35;;;6.65;;
11675;SDS011;5894;42.768;23.404;2022-09-09T03:18:38;7.80;;;7.07;;
11675;SDS011;5894;42.768;23.404;2022-09-09T03:21:05;8.38;;;7.20;;
11675;SDS011;5894;42.768;23.404;2022-09-09T03:23:35;9.15;;;7.25;;
11675;SDS011;5894;42.768;23.404;2022-09-09T03:26:02;8.75;;;7.35;;
11675;SDS011;5894;42.768;23.404;2022-09-09T03:28:38;8.43;;;7.55;;
11675;SDS011;5894;42.768;23.404;2022-09-09T03:31:06;9.38;;;7.15;;
11675;SDS011;5894;42.768;23.404;2022-09-09T03:33:38;9.00;;;6.70;;
11675;SDS011;5894;42.768;23.404;2022-09-09T03:36:07;8.13;;;7.35;;
11675;SDS011;5894;42.768;23.404;2022-09-09T03:38:35;8.60;;;7.55;;
11675;SDS011;5894;42.768;23.404;2022-09-09T03:41:02;9.93;;;7.55;;
11675;SDS011;5894;42.768;23.404;2022-09-09T03:43:33;9.45;;;7.07;;
11675;SDS011;5894;42.768;23.404;2022-09-09T03:46:00;7.93;;;7.13;;
11675;SDS011;5894;42.768;23.404;2022-09-09T03:48:29;8.25;;;7.53;;
11675;SDS011;5894;42.768;23.404;2022-09-09T03:50:57;7.85;;;7.10;;
11675;SDS011;5894;42.768;23.404;2022-09-09T03:53:27;8.88;;;7.25;;
11675;SDS011;5894;42.768;23.404;2022-09-09T03:55:55;14.15;;;7.97;;
11675;SDS011;5894;42.768;23.404;2022-09-09T03:58:25;19.25;;;8.50;;
11675;SDS011;5894;42.768;23.404;2022-09-09T04:00:59;9.90;;;7.80;;
11675;SDS011;5894;42.768;23.404;2022-09-09T04:03:29;8.93;;;7.30;;
11675;SDS011;5894;42.768;23.404;2022-09-09T04:05:58;10.90;;;7.35;;
11675;SDS011;5894;42.768;23.404;2022-09-09T04:08:28;10.63;;;8.07;;
11675;SDS011;5894;42.768;23.404;2022-09-09T04:10:57;10.10;;;7.38;;
11675;SDS011;5894;42.768;23.404;2022-09-09T04:13:28;10.32;;;7.18;;
11675;SDS011;5894;42.768;23.404;2022-09-09T04:15:56;9.32;;;7.90;;
11675;SDS011;5894;42.768;23.404;2022-09-09T04:18:25;10.93;;;7.32;;
11675;SDS011;5894;42.768;23.404;2022-09-09T04:20:54;13.20;;;8.18;;
11675;SDS011;5894;42.768;23.404;2022-09-09T04:23:24;11.75;;;8.57;;
11675;SDS011;5894;42.768;23.404;2022-09-09T04:25:56;11.50;;;8.18;;
11675;SDS011;5894;42.768;23.404;2022-09-09T04:28:26;11.50;;;8.32;;
11675;SDS011;5894;42.768;23.404;2022-09-09T04:30:54;9.95;;;7.68;;
11675;SDS011;5894;42.768;23.404;2022-09-09T04:33:23;9.18;;;8.35;;
11675;SDS011;5894;42.768;23.404;2022-09-09T04:35:51;9.55;;;8.45;;
11675;SDS011;5894;42.768;23.404;2022-09-09T04:38:24;10.27;;;8.40;;
11675;SDS011;5894;42.768;23.404;2022-09-09T04:40:52;9.73;;;8.52;;
11675;SDS011;5894;42.768;23.404;2022-09-09T04:43:20;10.68;;;8.15;;
11675;SDS011;5894;42.768;23.404;2022-09-09T04:45:48;10.20;;;8.60;;
11675;SDS011;5894;42.768;23.404;2022-09-09T04:48:19;12.73;;;8.90;;
11675;SDS011;5894;42.768;23.404;2022-09-09T04:50:55;11.90;;;8.98;;
11675;SDS011;5894;42.768;23.404;2022-09-09T04:53:24;10.93;;;8.70;;
11675;SDS011;5894;42.768;23.404;2022-09-09T04:55:52;15.45;;;13.63;;
11675;SDS011;5894;42.768;23.404;2022-09-09T04:58:20;19.52;;;10.70;;
11675;SDS011;5894;42.768;23.404;2022-09-09T05:00:49;19.27;;;12.07;;
11675;SDS011;5894;42.768;23.404;2022-09-09T05:03:17;19.40;;;9.88;;
11675;SDS011;5894;42.768;23.404;2022-09-09T05:05:44;12.88;;;9.55;;
11675;SDS011;5894;42.768;23.404;2022-09-09T05:08:11;12.18;;;8.20;;
11675;SDS011;5894;42.768;23.404;2022-09-09T05:10:39;11.80;;;8.70;;
11675;SDS011;5894;42.768;23.404;2022-09-09T05:13:07;11.00;;;8.63;;
11675;SDS011;5894;42.768;23.404;2022-09-09T05:15:35;11.88;;;8.15;;
11675;SDS011;5894;42.768;23.404;2022-09-09T05:18:02;13.35;;;9.20;;
11675;SDS011;5894;42.768;23.404;2022-09-09T05:20:31;10.35;;;9.25;;
11675;SDS011;5894;42.768;23.404;2022-09-09T05:22:58;9.65;;;8.80;;
11675;SDS011;5894;42.768;23.404;2022-09-09T05:25:28;11.77;;;8.45;;
11675;SDS011;5894;42.768;23.404;2022-09-09T05:27:57;8.55;;;7.75;;
11675;SDS011;5894;42.768;23.404;2022-09-09T05:30:25;11.50;;;8.57;;
11675;SDS011;5894;42.768;23.404;2022-09-09T05:32:52;9.57;;;8.68;;
11675;SDS011;5894;42.768;23.404;2022-09-09T05:35:22;9.13;;;8.23;;
11675;SDS011;5894;42.768;23.404;2022-09-09T05:37:49;9.55;;;8.52;;
11675;SDS011;5894;42.768;23.404;2022-09-09T05:40:16;13.38;;;9.85;;
11675;SDS011;5894;42.768;23.404;2022-09-09T05:42:43;9.43;;;8.52;;
11675;SDS011;5894;42.768;23.404;2022-09-09T05:45:11;10.85;;;8.27;;
11675;SDS011;5894;42.768;23.404;2022-09-09T05:47:38;12.18;;;8.90;;
11675;SDS011;5894;42.768;23.404;2022-09-09T05:50:08;10.52;;;8.18;;
11675;SDS011;5894;42.768;23.404;2022-09-09T05:52:35;9.35;;;8.60;;
11675;SDS011;5894;42.768;23.404;2022-09-09T05:55:07;8.80;;;8.00;;
11675;SDS011;5894;42.768;23.404;2022-09-09T05:57:35;11.15;;;8.02;;
11675;SDS011;5894;42.768;23.404;2022-09-09T06:00:04;10.07;;;7.90;;
11675;SDS011;5894;42.768;23.404;2022-09-09T06:02:40;8.18;;;7.35;;
11675;SDS011;5894;42.768;23.404;2022-09-09T06:05:10;9.50;;;7.65;;
11675;SDS011;5894;42.768;23.404;2022-09-09T06:07:37;9.90;;;6.75;;
11675;SDS011;5894;42.768;23.404;2022-09-09T06:10:08;9.40;;;6.57;;
11675;SDS011;5894;42.768;23.404;2022-09-09T06:12:35;9.13;;;7.25;;
11675;SDS011;5894;42.768;23.404;2022-09-09T06:15:02;8.23;;;7.00;;
11675;SDS011;5894;42.768;23.404;2022-09-09T06:17:30;9.98;;;7.10;;
11675;SDS011;5894;42.768;23.404;2022-09-09T06:19:59;7.10;;;6.38;;
11675;SDS011;5894;42.768;23.404;2022-09-09T06:22:26;9.05;;;6.68;;
11675;SDS011;5894;42.768;23.404;2022-09-09T06:24:53;12.55;;;6.30;;
11675;SDS011;5894;42.768;23.404;2022-09-09T06:27:21;8.30;;;6.65;;
11675;SDS011;5894;42.768;23.404;2022-09-09T06:29:48;7.15;;;6.45;;
11675;SDS011;5894;42.768;23.404;2022-09-09T06:32:15;6.72;;;6.03;;
11675;SDS011;5894;42.768;23.404;2022-09-09T06:34:43;6.50;;;5.90;;
11675;SDS011;5894;42.768;23.404;2022-09-09T06:37:12;6.82;;;6.13;;
11675;SDS011;5894;42.768;23.404;2022-09-09T06:39:46;9.32;;;5.72;;
11675;SDS011;5894;42.768;23.404;2022-09-09T06:42:15;8.73;;;5.72;;
11675;SDS011;5894;42.768;23.404;2022-09-09T06:44:48;6.22;;;5.63;;
11675;SDS011;5894;42.768;23.404;2022-09-09T06:47:25;6.38;;;5.55;;
11675;SDS011;5894;42.768;23.404;2022-09-09T06:49:54;7.55;;;5.90;;
11675;SDS011;5894;42.768;23.404;2022-09-09T06:52:23;7.20;;;5.60;;
11675;SDS011;5894;42.768;23.404;2022-09-09T06:54:50;7.47;;;6.20;;
11675;SDS011;5894;42.768;23.404;2022-09-09T06:57:17;7.20;;;5.78;;
11675;SDS011;5894;42.768;23.404;2022-09-09T06:59:44;6.53;;;5.53;;
11675;SDS011;5894;42.768;23.404;2022-09-09T07:02:11;31.17;;;6.78;;
11675;SDS011;5894;42.768;23.404;2022-09-09T07:04:38;12.73;;;6.38;;
11675;SDS011;5894;42.768;23.404;2022-09-09T07:07:05;12.35;;;6.20;;
11675;SDS011;5894;42.768;23.404;2022-09-09T07:09:34;8.43;;;5.90;;
11675;SDS011;5894;42.768;23.404;2022-09-09T07:12:01;12.27;;;5.07;;
11675;SDS011;5894;42.768;23.404;2022-09-09T07:14:32;9.80;;;6.05;;
11675;SDS011;5894;42.768;23.404;2022-09-09T07:17:04;7.43;;;5.80;;
11675;SDS011;5894;42.768;23.404;2022-09-09T07:19:35;6.13;;;5.53;;
11675;SDS011;5894;42.768;23.404;2022-09-09T07:22:03;5.97;;;5.45;;
11675;SDS011;5894;42.768;23.404;2022-09-09T07:24:32;6.85;;;5.65;;
11675;SDS011;5894;42.768;23.404;2022-09-09T07:27:01;9.85;;;4.97;;
11675;SDS011;5894;42.768;23.404;2022-09-09T07:29:28;9.40;;;5.10;;
11675;SDS011;5894;42.768;23.404;2022-09-09T07:31:56;9.75;;;5.22;;
11675;SDS011;5894;42.768;23.404;2022-09-09T07:34:29;8.38;;;4.93;;
11675;SDS011;5894;42.768;23.404;2022-09-09T07:36:55;9.15;;;5.00;;
11675;SDS011;5894;42.768;23.404;2022-09-09T07:39:23;5.50;;;4.93;;
11675;SDS011;5894;42.768;23.404;2022-09-09T07:41:52;7.10;;;4.88;;
11675;SDS011;5894;42.768;23.404;2022-09-09T07:44:23;5.15;;;4.43;;
11675;SDS011;5894;42.768;23.404;2022-09-09T07:47:02;8.68;;;4.90;;
11675;SDS011;5894;42.768;23.404;2022-09-09T07:49:35;10.02;;;4.90;;
11675;SDS011;5894;42.768;23.404;2022-09-09T07:52:04;12.07;;;5.00;;
11675;SDS011;5894;42.768;23.404;2022-09-09T07:54:33;6.70;;;4.50;;
11675;SDS011;5894;42.768;23.404;2022-09-09T07:57:03;6.10;;;4.78;;
11675;SDS011;5894;42.768;23.404;2022-09-09T07:59:34;4.82;;;3.97;;
11675;SDS011;5894;42.768;23.404;2022-09-09T08:02:02;7.53;;;4.18;;
11675;SDS011;5894;42.768;23.404;2022-09-09T08:04:32;6.70;;;4.60;;
11675;SDS011;5894;42.768;23.404;2022-09-09T08:06:59;5.78;;;4.15;;
11675;SDS011;5894;42.768;23.404;2022-09-09T08:09:32;5.25;;;4.75;;
11675;SDS011;5894;42.768;23.404;2022-09-09T08:12:08;9.23;;;4.53;;
11675;SDS011;5894;42.768;23.404;2022-09-09T08:14:39;8.27;;;4.22;;
11675;SDS011;5894;42.768;23.404;2022-09-09T08:17:09;8.15;;;4.95;;
11675;SDS011;5894;42.768;23.404;2022-09-09T08:19:37;6.05;;;4.13;;
11675;SDS011;5894;42.768;23.404;2022-09-09T08:22:10;6.22;;;4.20;;
11675;SDS011;5894;42.768;23.404;2022-09-09T08:24:38;5.13;;;4.40;;
11675;SDS011;5894;42.768;23.404;2022-09-09T08:27:07;11.10;;;4.70;;
11675;SDS011;5894;42.768;23.404;2022-09-09T08:29:36;6.80;;;5.13;;
11675;SDS011;5894;42.768;23.404;2022-09-09T08:32:05;8.32;;;4.65;;
11675;SDS011;5894;42.768;23.404;2022-09-09T08:34:33;7.45;;;4.43;;
11675;SDS011;5894;42.768;23.404;2022-09-09T08:37:06;6.75;;;4.88;;
11675;SDS011;5894;42.768;23.404;2022-09-09T08:39:37;5.78;;;4.43;;
11675;SDS011;5894;42.768;23.404;2022-09-09T08:42:08;9.90;;;5.20;;
11675;SDS011;5894;42.768;23.404;2022-09-09T08:48:03;6.10;;;5.18;;
11675;SDS011;5894;42.768;23.404;2022-09-09T08:50:38;14.75;;;10.50;;
11675;SDS011;5894;42.768;23.404;2022-09-09T08:53:15;13.07;;;9.70;;
11675;SDS011;5894;42.768;23.404;2022-09-09T08:55:46;17.08;;;9.32;;
11675;SDS011;5894;42.768;23.404;2022-09-09T08:58:19;14.55;;;7.03;;
11675;SDS011;5894;42.768;23.404;2022-09-09T09:03:52;11.85;;;7.90;;
11675;SDS011;5894;42.768;23.404;2022-09-09T09:06:33;9.80;;;6.15;;
11675;SDS011;5894;42.768;23.404;2022-09-09T09:09:11;6.25;;;5.45;;
11675;SDS011;5894;42.768;23.404;2022-09-09T09:11:48;8.65;;;5.03;;
11675;SDS011;5894;42.768;23.404;2022-09-09T09:14:18;8.45;;;6.90;;
11675;SDS011;5894;42.768;23.404;2022-09-09T09:16:50;11.15;;;7.50;;
11675;SDS011;5894;42.768;23.404;2022-09-09T09:19:22;8.38;;;6.20;;
11675;SDS011;5894;42.768;23.404;2022-09-09T09:21:54;7.28;;;5.60;;
11675;SDS011;5894;42.768;23.404;2022-09-09T09:24:30;8.40;;;6.32;;
11675;SDS011;5894;42.768;23.404;2022-09-09T09:27:10;7.88;;;5.90;;
11675;SDS011;5894;42.768;23.404;2022-09-09T09:29:43;7.50;;;4.55;;
11675;SDS011;5894;42.768;23.404;2022-09-09T09:32:16;7.85;;;5.40;;
11675;SDS011;5894;42.768;23.404;2022-09-09T09:34:49;7.60;;;6.88;;
11675;SDS011;5894;42.768;23.404;2022-09-09T09:37:21;6.82;;;5.70;;
11675;SDS011;5894;42.768;23.404;2022-09-09T09:39:53;9.68;;;8.23;;
11675;SDS011;5894;42.768;23.404;2022-09-09T09:42:21;8.50;;;7.65;;
11675;SDS011;5894;42.768;23.404;2022-09-09T09:44:49;6.05;;;4.82;;
11675;SDS011;5894;42.768;23.404;2022-09-09T09:47:19;13.50;;;9.82;;
11675;SDS011;5894;42.768;23.404;2022-09-09T09:50:04;9.75;;;7.32;;
11675;SDS011;5894;42.768;23.404;2022-09-09T09:52:51;9.32;;;8.32;;
11675;SDS011;5894;42.768;23.404;2022-09-09T09:55:21;6.20;;;5.22;;
11675;SDS011;5894;42.768;23.404;2022-09-09T09:57:49;6.07;;;5.35;;
11675;SDS011;5894;42.768;23.404;2022-09-09T10:00:17;10.20;;;9.15;;
11675;SDS011;5894;42.768;23.404;2022-09-09T10:02:57;7.90;;;6.88;;
11675;SDS011;5894;42.768;23.404;2022-09-09T10:05:32;8.10;;;7.13;;
11675;SDS011;5894;42.768;23.404;2022-09-09T10:08:10;10.85;;;8.35;;
11675;SDS011;5894;42.768;23.404;2022-09-09T10:10:42;9.70;;;8.73;;
11675;SDS011;5894;42.768;23.404;2022-09-09T10:13:18;11.82;;;9.07;;
11675;SDS011;5894;42.768;23.404;2022-09-09T10:15:53;10.30;;;9.05;;
11675;SDS011;5894;42.768;23.404;2022-09-09T10:18:36;6.97;;;6.28;;
11675;SDS011;5894;42.768;23.404;2022-09-09T10:21:14;8.05;;;7.13;;
11675;SDS011;5894;42.768;23.404;2022-09-09T10:23:54;7.25;;;4.88;;
11675;SDS011;5894;42.768;23.404;2022-09-09T10:26:34;6.40;;;5.15;;
11675;SDS011;5894;42.768;23.404;2022-09-09T10:32:02;6.28;;;5.65;;
11675;SDS011;5894;42.768;23.404;2022-09-09T10:34:47;5.22;;;4.72;;
11675;SDS011;5894;42.768;23.404;2022-09-09T10:37:27;9.40;;;8.50;;
11675;SDS011;5894;42.768;23.404;2022-09-09T10:40:14;7.72;;;4.88;;
11675;SDS011;5894;42.768;23.404;2022-09-09T10:42:58;8.18;;;4.63;;
11675;SDS011;5894;42.768;23.404;2022-09-09T10:45:35;8.07;;;5.63;;
11675;SDS011;5894;42.768;23.404;2022-09-09T10:48:18;12.60;;;8.90;;
11675;SDS011;5894;42.768;23.404;2022-09-09T10:51:10;9.55;;;6.90;;
11675;SDS011;5894;42.768;23.404;2022-09-09T10:53:52;10.88;;;5.95;;
11675;SDS011;5894;42.768;23.404;2022-09-09T10:56:28;6.32;;;5.35;;
11675;SDS011;5894;42.768;23.404;2022-09-09T10:58:58;9.18;;;6.07;;
11675;SDS011;5894;42.768;23.404;2022-09-09T11:01:28;6.60;;;5.28;;
11675;SDS011;5894;42.768;23.404;2022-09-09T11:03:59;6.72;;;5.50;;
11675;SDS011;5894;42.768;23.404;2022-09-09T11:06:31;7.53;;;5.07;;
11675;SDS011;5894;42.768;23.404;2022-09-09T11:09:03;7.85;;;5.68;;
11675;SDS011;5894;42.768;23.404;2022-09-09T11:11:32;17.13;;;6.18;;
11675;SDS011;5894;42.768;23.404;2022-09-09T11:14:08;16.65;;;6.20;;
11675;SDS011;5894;42.768;23.404;2022-09-09T11:16:42;20.52;;;8.48;;
11675;SDS011;5894;42.768;23.404;2022-09-09T11:19:17;7.15;;;5.50;;
11675;SDS011;5894;42.768;23.404;2022-09-09T11:21:52;8.65;;;5.90;;
11675;SDS011;5894;42.768;23.404;2022-09-09T11:24:25;6.85;;;5.72;;
11675;SDS011;5894;42.768;23.404;2022-09-09T11:26:58;8.95;;;5.80;;
11675;SDS011;5894;42.768;23.404;2022-09-09T11:29:39;8.13;;;5.90;;
11675;SDS011;5894;42.768;23.404;2022-09-09T11:32:20;6.18;;;5.53;;
11675;SDS011;5894;42.768;23.404;2022-09-09T11:35:09;7.97;;;6.18;;
11675;SDS011;5894;42.768;23.404;2022-09-09T11:37:58;6.57;;;5.80;;
11675;SDS011;5894;42.768;23.404;2022-09-09T11:40:44;6.00;;;5.40;;
11675;SDS011;5894;42.768;23.404;2022-09-09T11:43:13;6.80;;;6.10;;
11675;SDS011;5894;42.768;23.404;2022-09-09T11:45:50;6.78;;;6.07;;
11675;SDS011;5894;42.768;23.404;2022-09-09T11:48:25;8.52;;;5.88;;
11675;SDS011;5894;42.768;23.404;2022-09-09T11:50:59;10.15;;;5.70;;
11675;SDS011;5894;42.768;23.404;2022-09-09T11:53:30;11.48;;;6.28;;
11675;SDS011;5894;42.768;23.404;2022-09-09T11:56:05;7.32;;;6.38;;
11675;SDS011;5894;42.768;23.404;2022-09-09T11:58:39;9.23;;;6.78;;
11675;SDS011;5894;42.768;23.404;2022-09-09T12:01:15;9.35;;;6.60;;
11675;SDS011;5894;42.768;23.404;2022-09-09T12:03:55;11.57;;;6.28;;
11675;SDS011;5894;42.768;23.404;2022-09-09T12:06:41;9.20;;;6.45;;
11675;SDS011;5894;42.768;23.404;2022-09-09T12:09:15;10.38;;;6.80;;
11675;SDS011;5894;42.768;23.404;2022-09-09T12:11:48;12.95;;;7.68;;
11675;SDS011;5894;42.768;23.404;2022-09-09T12:14:19;9.00;;;6.55;;
11675;SDS011;5894;42.768;23.404;2022-09-09T12:16:48;7.53;;;6.07;;
11675;SDS011;5894;42.768;23.404;2022-09-09T12:19:16;8.63;;;6.53;;
11675;SDS011;5894;42.768;23.404;2022-09-09T12:21:48;7.72;;;6.40;;
11675;SDS011;5894;42.768;23.404;2022-09-09T12:24:22;8.30;;;6.18;;
11675;SDS011;5894;42.768;23.404;2022-09-09T12:26:58;8.30;;;6.32;;
11675;SDS011;5894;42.768;23.404;2022-09-09T12:29:34;9.57;;;6.50;;
11675;SDS011;5894;42.768;23.404;2022-09-09T12:32:09;14.60;;;7.15;;
11675;SDS011;5894;42.768;23.404;2022-09-09T12:34:39;9.35;;;6.68;;
11675;SDS011;5894;42.768;23.404;2022-09-09T12:37:15;10.93;;;7.60;;
11675;SDS011;5894;42.768;23.404;2022-09-09T12:39:49;10.15;;;7.03;;
11675;SDS011;5894;42.768;23.404;2022-09-09T12:42:22;10.48;;;7.13;;
11675;SDS011;5894;42.768;23.404;2022-09-09T12:44:50;31.75;;;9.43;;
11675;SDS011;5894;42.768;23.404;2022-09-09T12:47:18;10.70;;;7.45;;
11675;SDS011;5894;42.768;23.404;2022-09-09T12:49:48;7.78;;;7.00;;
11675;SDS011;5894;42.768;23.404;2022-09-09T12:52:19;10.10;;;7.90;;
11675;SDS011;5894;42.768;23.404;2022-09-09T12:54:51;9.20;;;6.88;;
11675;SDS011;5894;42.768;23.404;2022-09-09T12:57:19;9.40;;;7.63;;
11675;SDS011;5894;42.768;23.404;2022-09-09T12:59:50;11.35;;;7.00;;
11675;SDS011;5894;42.768;23.404;2022-09-09T13:02:19;12.18;;;7.80;;
11675;SDS011;5894;42.768;23.404;2022-09-09T13:04:47;12.40;;;8.05;;
11675;SDS011;5894;42.768;23.404;2022-09-09T13:07:15;13.70;;;7.88;;
11675;SDS011;5894;42.768;23.404;2022-09-09T13:09:43;22.23;;;8.95;;
11675;SDS011;5894;42.768;23.404;2022-09-09T13:12:12;14.95;;;8.23;;
11675;SDS011;5894;42.768;23.404;2022-09-09T13:14:44;9.48;;;7.30;;
11675;SDS011;5894;42.768;23.404;2022-09-09T13:17:18;9.85;;;7.78;;
11675;SDS011;5894;42.768;23.404;2022-09-09T13:19:47;13.95;;;7.90;;
11675;SDS011;5894;42.768;23.404;2022-09-09T13:22:21;9.70;;;6.80;;
11675;SDS011;5894;42.768;23.404;2022-09-09T13:25:04;13.70;;;8.15;;
11675;SDS011;5894;42.768;23.404;2022-09-09T13:27:33;13.30;;;7.50;;
11675;SDS011;5894;42.768;23.404;2022-09-09T13:35:49;19.10;;;11.35;;
11675;SDS011;5894;42.768;23.404;2022-09-09T13:38:18;13.80;;;10.52;;
11675;SDS011;5894;42.768;23.404;2022-09-09T13:40:53;10.50;;;7.75;;
11675;SDS011;5894;42.768;23.404;2022-09-09T13:43:25;8.88;;;7.78;;
11675;SDS011;5894;42.768;23.404;2022-09-09T13:45:53;9.70;;;7.20;;
11675;SDS011;5894;42.768;23.404;2022-09-09T13:48:24;8.57;;;6.57;;
11675;SDS011;5894;42.768;23.404;2022-09-09T13:50:55;8.55;;;7.65;;
11675;SDS011;5894;42.768;23.404;2022-09-09T13:53:24;9.95;;;7.80;;
11675;SDS011;5894;42.768;23.404;2022-09-09T13:55:51;8.80;;;7.97;;
11675;SDS011;5894;42.768;23.404;2022-09-09T13:58:19;11.30;;;7.70;;
11675;SDS011;5894;42.768;23.404;2022-09-09T14:00:48;9.88;;;7.85;;
11675;SDS011;5894;42.768;23.404;2022-09-09T14:03:16;9.07;;;7.47;;
11675;SDS011;5894;42.768;23.404;2022-09-09T14:05:45;10.50;;;7.43;;
11675;SDS011;5894;42.768;23.404;2022-09-09T14:08:15;9.73;;;7.00;;
11675;SDS011;5894;42.768;23.404;2022-09-09T14:10:47;8.75;;;6.30;;
11675;SDS011;5894;42.768;23.404;2022-09-09T14:13:14;10.63;;;5.65;;
11675;SDS011;5894;42.768;23.404;2022-09-09T14:15:41;10.00;;;6.20;;
11675;SDS011;5894;42.768;23.404;2022-09-09T14:18:09;8.07;;;5.43;;
11675;SDS011;5894;42.768;23.404;2022-09-09T14:20:38;11.85;;;5.55;;
11675;SDS011;5894;42.768;23.404;2022-09-09T14:23:07;10.93;;;6.00;;
11675;SDS011;5894;42.768;23.404;2022-09-09T14:25:39;7.03;;;5.38;;
11675;SDS011;5894;42.768;23.404;2022-09-09T14:28:07;11.77;;;5.10;;
11675;SDS011;5894;42.768;23.404;2022-09-09T14:30:36;11.40;;;6.05;;
11675;SDS011;5894;42.768;23.404;2022-09-09T14:33:04;8.20;;;5.45;;
11675;SDS011;5894;42.768;23.404;2022-09-09T14:35:31;12.35;;;5.88;;
11675;SDS011;5894;42.768;23.404;2022-09-09T14:37:58;9.38;;;5.68;;
11675;SDS011;5894;42.768;23.404;2022-09-09T14:40:27;6.22;;;5.30;;
11675;SDS011;5894;42.768;23.404;2022-09-09T14:42:54;10.07;;;4.97;;
11675;SDS011;5894;42.768;23.404;2022-09-09T14:45:21;9.52;;;4.60;;
11675;SDS011;5894;42.768;23.404;2022-09-09T14:47:50;7.32;;;4.88;;
11675;SDS011;5894;42.768;23.404;2022-09-09T14:50:17;8.95;;;5.32;;
11675;SDS011;5894;42.768;23.404;2022-09-09T14:52:44;7.13;;;4.72;;
11675;SDS011;5894;42.768;23.404;2022-09-09T14:55:11;11.73;;;4.80;;
11675;SDS011;5894;42.768;23.404;2022-09-09T14:57:40;8.68;;;4.70;;
11675;SDS011;5894;42.768;23.404;2022-09-09T15:00:08;7.00;;;4.65;;
11675;SDS011;5894;42.768;23.404;2022-09-09T15:02:37;13.20;;;5.13;;
11675;SDS011;5894;42.768;23.404;2022-09-09T15:05:04;8.98;;;5.00;;
11675;SDS011;5894;42.768;23.404;2022-09-09T15:07:32;8.75;;;4.90;;
11675;SDS011;5894;42.768;23.404;2022-09-09T15:09:59;14.07;;;5.90;;
11675;SDS011;5894;42.768;23.404;2022-09-09T15:12:26;10.65;;;4.90;;
11675;SDS011;5894;42.768;23.404;2022-09-09T15:14:54;11.48;;;4.93;;
11675;SDS011;5894;42.768;23.404;2022-09-09T15:17:21;9.50;;;4.80;;
11675;SDS011;5894;42.768;23.404;2022-09-09T15:19:52;8.70;;;5.30;;
11675;SDS011;5894;42.768;23.404;2022-09-09T15:22:19;7.78;;;4.95;;
11675;SDS011;5894;42.768;23.404;2022-09-09T15:24:46;7.72;;;5.07;;